sensor_id;sensor_type;location;lat;lon;timestamp;temperature;humidity
48264;DHT22;34086;51.076;13.722;2023-07-31T00:00:01;16.20;99.90
48264;DHT22;34086;51.076;13.722;2023-07-31T00:01:01;16.20;99.90
48264;DHT22;34086;51.076;13.722;2023-07-31T00:02:02;16.20;99.90
48264;DHT22;34086;51.076;13.722;2023-07-31T00:03:03;16.20;99.90
48264;DHT22;34086;51.076;13.722;2023-07-31T00:04:03;16.20;99.90
48264;DHT22;34086;51.076;13.722;2023-07-31T00:05:04;16.20;99.90
48264;DHT22;34086;51.076;13.722;2023-07-31T00:06:04;16.30;99.90
48264;DHT22;34086;51.076;13.722;2023-07-31T00:07:05;16.30;99.90
48264;DHT22;34086;51.076;13.722;2023-07-31T00:08:06;16.40;99.90
48264;DHT22;34086;51.076;13.722;2023-07-31T00:09:07;16.40;99.90
48264;DHT22;34086;51.076;13.722;2023-07-31T00:10:07;16.40;99.90
48264;DHT22;34086;51.076;13.722;2023-07-31T00:11:08;16.40;99.90
48264;DHT22;34086;51.076;13.722;2023-07-31T00:12:08;16.40;99.90
48264;DHT22;34086;51.076;13.722;2023-07-31T00:13:09;16.40;99.90
48264;DHT22;34086;51.076;13.722;2023-07-31T00:14:09;16.50;99.90
48264;DHT22;34086;51.076;13.722;2023-07-31T00:15:10;16.50;99.90
48264;DHT22;34086;51.076;13.722;2023-07-31T00:16:11;16.50;99.90
48264;DHT22;34086;51.076;13.722;2023-07-31T00:17:11;16.50;99.90
48264;DHT22;34086;51.076;13.722;2023-07-31T00:18:12;16.50;99.90
48264;DHT22;34086;51.076;13.722;2023-07-31T00:19:12;16.60;99.90
48264;DHT22;34086;51.076;13.722;2023-07-31T00:20:13;16.60;99.90
48264;DHT22;34086;51.076;13.722;2023-07-31T00:21:13;16.50;99.90
48264;DHT22;34086;51.076;13.722;2023-07-31T00:22:14;16.50;99.90
48264;DHT22;34086;51.076;13.722;2023-07-31T00:23:14;16.50;99.90
48264;DHT22;34086;51.076;13.722;2023-07-31T00:24:15;16.60;99.90
48264;DHT22;34086;51.076;13.722;2023-07-31T00:25:15;16.50;99.90
48264;DHT22;34086;51.076;13.722;2023-07-31T00:26:16;16.60;99.90
48264;DHT22;34086;51.076;13.722;2023-07-31T00:27:16;16.60;99.90
48264;DHT22;34086;51.076;13.722;2023-07-31T00:28:17;16.60;99.90
48264;DHT22;34086;51.076;13.722;2023-07-31T00:29:18;16.60;99.90
48264;DHT22;34086;51.076;13.722;2023-07-31T00:30:18;16.50;99.90
48264;DHT22;34086;51.076;13.722;2023-07-31T00:31:19;16.60;99.90
48264;DHT22;34086;51.076;13.722;2023-07-31T00:32:19;16.60;99.90
48264;DHT22;34086;51.076;13.722;2023-07-31T00:33:20;16.60;99.90
48264;DHT22;34086;51.076;13.722;2023-07-31T00:34:21;16.60;99.90
48264;DHT22;34086;51.076;13.722;2023-07-31T00:35:21;16.70;99.90
48264;DHT22;34086;51.076;13.722;2023-07-31T00:36:22;16.60;99.90
48264;DHT22;34086;51.076;13.722;2023-07-31T00:37:23;16.70;99.90
48264;DHT22;34086;51.076;13.722;2023-07-31T00:38:23;16.70;99.90
48264;DHT22;34086;51.076;13.722;2023-07-31T00:39:24;16.70;99.90
48264;DHT22;34086;51.076;13.722;2023-07-31T00:40:24;16.70;99.90
48264;DHT22;34086;51.076;13.722;2023-07-31T00:41:25;16.70;99.90
48264;DHT22;34086;51.076;13.722;2023-07-31T00:42:25;16.70;99.90
48264;DHT22;34086;51.076;13.722;2023-07-31T00:43:25;16.70;99.90
48264;DHT22;34086;51.076;13.722;2023-07-31T00:44:26;16.70;99.90
48264;DHT22;34086;51.076;13.722;2023-07-31T00:45:27;16.70;99.90
48264;DHT22;34086;51.076;13.722;2023-07-31T00:46:29;16.70;99.90
48264;DHT22;34086;51.076;13.722;2023-07-31T00:47:30;16.70;99.90
48264;DHT22;34086;51.076;13.722;2023-07-31T00:48:34;16.70;99.90
48264;DHT22;34086;51.076;13.722;2023-07-31T00:49:35;16.70;99.90
48264;DHT22;34086;51.076;13.722;2023-07-31T00:50:36;16.80;99.90
48264;DHT22;34086;51.076;13.722;2023-07-31T00:51:37;16.70;99.90
48264;DHT22;34086;51.076;13.722;2023-07-31T00:52:37;16.70;99.90
48264;DHT22;34086;51.076;13.722;2023-07-31T00:53:38;16.70;99.90
48264;DHT22;34086;51.076;13.722;2023-07-31T00:54:40;16.70;99.90
48264;DHT22;34086;51.076;13.722;2023-07-31T00:55:41;16.70;99.90
48264;DHT22;34086;51.076;13.722;2023-07-31T00:56:43;16.70;99.90
48264;DHT22;34086;51.076;13.722;2023-07-31T00:57:45;16.70;99.90
48264;DHT22;34086;51.076;13.722;2023-07-31T00:58:45;16.70;99.90
48264;DHT22;34086;51.076;13.722;2023-07-31T00:59:46;16.70;99.90
48264;DHT22;34086;51.076;13.722;2023-07-31T01:00:47;16.70;99.90
48264;DHT22;34086;51.076;13.722;2023-07-31T01:01:47;16.70;99.90
48264;DHT22;34086;51.076;13.722;2023-07-31T01:02:49;16.60;99.90
48264;DHT22;34086;51.076;13.722;2023-07-31T01:03:50;16.60;99.90
48264;DHT22;34086;51.076;13.722;2023-07-31T01:04:54;16.60;99.90
48264;DHT22;34086;51.076;13.722;2023-07-31T01:06:30;16.60;99.90
48264;DHT22;34086;51.076;13.722;2023-07-31T01:07:25;16.60;99.90
48264;DHT22;34086;51.076;13.722;2023-07-31T01:08:37;16.60;99.90
48264;DHT22;34086;51.076;13.722;2023-07-31T01:10:46;16.50;99.90
48264;DHT22;34086;51.076;13.722;2023-07-31T01:11:53;16.50;99.90
48264;DHT22;34086;51.076;13.722;2023-07-31T01:12:53;16.40;99.90
48264;DHT22;34086;51.076;13.722;2023-07-31T01:13:55;16.40;99.90
48264;DHT22;34086;51.076;13.722;2023-07-31T01:15:02;16.30;99.90
48264;DHT22;34086;51.076;13.722;2023-07-31T01:16:03;16.30;99.90
48264;DHT22;34086;51.076;13.722;2023-07-31T01:17:04;16.20;99.90
48264;DHT22;34086;51.076;13.722;2023-07-31T01:18:05;16.20;99.90
48264;DHT22;34086;51.076;13.722;2023-07-31T01:19:06;16.10;99.90
48264;DHT22;34086;51.076;13.722;2023-07-31T01:20:10;16.10;99.90
48264;DHT22;34086;51.076;13.722;2023-07-31T01:23:45;16.00;99.90
48264;DHT22;34086;51.076;13.722;2023-07-31T01:24:54;15.90;99.90
48264;DHT22;34086;51.076;13.722;2023-07-31T01:25:56;15.90;99.90
48264;DHT22;34086;51.076;13.722;2023-07-31T01:27:06;15.80;99.90
48264;DHT22;34086;51.076;13.722;2023-07-31T01:28:11;15.80;99.90
48264;DHT22;34086;51.076;13.722;2023-07-31T01:29:25;15.80;99.90
48264;DHT22;34086;51.076;13.722;2023-07-31T01:30:28;15.80;99.90
48264;DHT22;34086;51.076;13.722;2023-07-31T01:31:33;15.80;99.90
48264;DHT22;34086;51.076;13.722;2023-07-31T01:32:38;15.70;99.90
48264;DHT22;34086;51.076;13.722;2023-07-31T01:33:39;15.70;99.90
48264;DHT22;34086;51.076;13.722;2023-07-31T01:34:40;15.70;99.90
48264;DHT22;34086;51.076;13.722;2023-07-31T01:35:42;15.70;99.90
48264;DHT22;34086;51.076;13.722;2023-07-31T01:36:43;15.70;99.90
48264;DHT22;34086;51.076;13.722;2023-07-31T01:37:45;15.70;99.90
48264;DHT22;34086;51.076;13.722;2023-07-31T01:38:45;15.70;99.90
48264;DHT22;34086;51.076;13.722;2023-07-31T01:39:46;15.70;99.90
48264;DHT22;34086;51.076;13.722;2023-07-31T01:40:48;15.70;99.90
48264;DHT22;34086;51.076;13.722;2023-07-31T01:41:51;15.70;99.90
48264;DHT22;34086;51.076;13.722;2023-07-31T01:42:51;15.70;99.90
48264;DHT22;34086;51.076;13.722;2023-07-31T01:43:52;15.70;99.90
48264;DHT22;34086;51.076;13.722;2023-07-31T01:44:52;15.70;99.90
48264;DHT22;34086;51.076;13.722;2023-07-31T01:45:54;15.70;99.90
48264;DHT22;34086;51.076;13.722;2023-07-31T01:46:54;15.70;99.90
48264;DHT22;34086;51.076;13.722;2023-07-31T01:47:55;15.80;99.90
48264;DHT22;34086;51.076;13.722;2023-07-31T01:48:55;15.80;99.90
48264;DHT22;34086;51.076;13.722;2023-07-31T01:49:56;15.80;99.90
48264;DHT22;34086;51.076;13.722;2023-07-31T01:50:56;15.80;99.90
48264;DHT22;34086;51.076;13.722;2023-07-31T01:52:00;15.80;99.90
48264;DHT22;34086;51.076;13.722;2023-07-31T01:53:00;15.80;99.90
48264;DHT22;34086;51.076;13.722;2023-07-31T01:54:01;15.80;99.90
48264;DHT22;34086;51.076;13.722;2023-07-31T01:55:02;15.80;99.90
48264;DHT22;34086;51.076;13.722;2023-07-31T01:56:02;15.80;99.90
48264;DHT22;34086;51.076;13.722;2023-07-31T01:57:05;15.80;99.90
48264;DHT22;34086;51.076;13.722;2023-07-31T01:58:05;15.80;99.90
48264;DHT22;34086;51.076;13.722;2023-07-31T01:59:06;15.80;99.90
48264;DHT22;34086;51.076;13.722;2023-07-31T02:00:06;15.80;99.90
48264;DHT22;34086;51.076;13.722;2023-07-31T02:01:12;15.80;99.90
48264;DHT22;34086;51.076;13.722;2023-07-31T02:02:13;15.80;99.90
48264;DHT22;34086;51.076;13.722;2023-07-31T02:03:13;15.80;99.90
48264;DHT22;34086;51.076;13.722;2023-07-31T02:04:14;15.80;99.90
48264;DHT22;34086;51.076;13.722;2023-07-31T02:05:14;15.80;99.90
48264;DHT22;34086;51.076;13.722;2023-07-31T02:06:15;15.80;99.90
48264;DHT22;34086;51.076;13.722;2023-07-31T02:07:15;15.90;99.90
48264;DHT22;34086;51.076;13.722;2023-07-31T02:08:16;15.90;99.90
48264;DHT22;34086;51.076;13.722;2023-07-31T02:09:17;15.90;99.90
48264;DHT22;34086;51.076;13.722;2023-07-31T02:10:17;15.90;99.90
48264;DHT22;34086;51.076;13.722;2023-07-31T02:11:18;16.00;99.90
48264;DHT22;34086;51.076;13.722;2023-07-31T02:12:18;16.00;99.90
48264;DHT22;34086;51.076;13.722;2023-07-31T02:13:19;16.00;99.90
48264;DHT22;34086;51.076;13.722;2023-07-31T02:14:19;16.00;99.90
48264;DHT22;34086;51.076;13.722;2023-07-31T02:15:20;16.00;99.90
48264;DHT22;34086;51.076;13.722;2023-07-31T02:16:22;16.10;99.90
48264;DHT22;34086;51.076;13.722;2023-07-31T02:17:22;16.10;99.90
48264;DHT22;34086;51.076;13.722;2023-07-31T02:18:23;16.10;99.90
48264;DHT22;34086;51.076;13.722;2023-07-31T02:19:23;16.20;99.90
48264;DHT22;34086;51.076;13.722;2023-07-31T02:20:24;16.20;99.90
48264;DHT22;34086;51.076;13.722;2023-07-31T02:21:24;16.20;99.90
48264;DHT22;34086;51.076;13.722;2023-07-31T02:22:25;16.20;99.90
48264;DHT22;34086;51.076;13.722;2023-07-31T02:23:25;16.20;99.90
48264;DHT22;34086;51.076;13.722;2023-07-31T02:24:26;16.20;99.90
48264;DHT22;34086;51.076;13.722;2023-07-31T02:25:26;16.20;99.90
48264;DHT22;34086;51.076;13.722;2023-07-31T02:26:27;16.30;99.90
48264;DHT22;34086;51.076;13.722;2023-07-31T02:27:27;16.30;99.90
48264;DHT22;34086;51.076;13.722;2023-07-31T02:28:28;16.30;99.90
48264;DHT22;34086;51.076;13.722;2023-07-31T02:29:29;16.30;99.90
48264;DHT22;34086;51.076;13.722;2023-07-31T02:30:29;16.30;99.90
48264;DHT22;34086;51.076;13.722;2023-07-31T02:31:30;16.40;99.90
48264;DHT22;34086;51.076;13.722;2023-07-31T02:32:30;16.30;99.90
48264;DHT22;34086;51.076;13.722;2023-07-31T02:33:31;16.40;99.90
48264;DHT22;34086;51.076;13.722;2023-07-31T02:34:31;16.40;99.90
48264;DHT22;34086;51.076;13.722;2023-07-31T02:35:32;16.40;99.90
48264;DHT22;34086;51.076;13.722;2023-07-31T02:36:32;16.40;99.90
48264;DHT22;34086;51.076;13.722;2023-07-31T02:37:33;16.40;99.90
48264;DHT22;34086;51.076;13.722;2023-07-31T02:38:34;16.50;99.90
48264;DHT22;34086;51.076;13.722;2023-07-31T02:39:34;16.50;99.90
48264;DHT22;34086;51.076;13.722;2023-07-31T02:40:35;16.50;99.90
48264;DHT22;34086;51.076;13.722;2023-07-31T02:41:35;16.50;99.90
48264;DHT22;34086;51.076;13.722;2023-07-31T02:42:36;16.50;99.90
48264;DHT22;34086;51.076;13.722;2023-07-31T02:43:36;16.50;99.90
48264;DHT22;34086;51.076;13.722;2023-07-31T02:44:37;16.50;99.90
48264;DHT22;34086;51.076;13.722;2023-07-31T02:45:37;16.50;99.90
48264;DHT22;34086;51.076;13.722;2023-07-31T02:46:38;16.50;99.90
48264;DHT22;34086;51.076;13.722;2023-07-31T02:47:39;16.50;99.90
48264;DHT22;34086;51.076;13.722;2023-07-31T02:48:39;16.50;99.90
48264;DHT22;34086;51.076;13.722;2023-07-31T02:49:40;16.50;99.90
48264;DHT22;34086;51.076;13.722;2023-07-31T02:50:40;16.50;99.90
48264;DHT22;34086;51.076;13.722;2023-07-31T02:51:41;16.50;99.90
48264;DHT22;34086;51.076;13.722;2023-07-31T02:52:41;16.40;99.90
48264;DHT22;34086;51.076;13.722;2023-07-31T02:53:42;16.40;99.90
48264;DHT22;34086;51.076;13.722;2023-07-31T02:54:42;16.40;99.90
48264;DHT22;34086;51.076;13.722;2023-07-31T02:55:43;16.40;99.90
48264;DHT22;34086;51.076;13.722;2023-07-31T02:56:44;16.50;99.90
48264;DHT22;34086;51.076;13.722;2023-07-31T02:57:44;16.50;99.90
48264;DHT22;34086;51.076;13.722;2023-07-31T02:58:45;16.50;99.90
48264;DHT22;34086;51.076;13.722;2023-07-31T02:59:45;16.50;99.90
48264;DHT22;34086;51.076;13.722;2023-07-31T03:00:46;16.50;99.90
48264;DHT22;34086;51.076;13.722;2023-07-31T03:01:46;16.50;99.90
48264;DHT22;34086;51.076;13.722;2023-07-31T03:02:47;16.50;99.90
48264;DHT22;34086;51.076;13.722;2023-07-31T03:03:47;16.50;99.90
48264;DHT22;34086;51.076;13.722;2023-07-31T03:04:48;16.50;99.90
48264;DHT22;34086;51.076;13.722;2023-07-31T03:05:49;16.50;99.90
48264;DHT22;34086;51.076;13.722;2023-07-31T03:06:49;16.60;99.90
48264;DHT22;34086;51.076;13.722;2023-07-31T03:07:50;16.60;99.90
48264;DHT22;34086;51.076;13.722;2023-07-31T03:08:50;16.70;99.90
48264;DHT22;34086;51.076;13.722;2023-07-31T03:09:51;16.70;99.90
48264;DHT22;34086;51.076;13.722;2023-07-31T03:10:51;16.80;99.90
48264;DHT22;34086;51.076;13.722;2023-07-31T03:11:52;16.90;99.90
48264;DHT22;34086;51.076;13.722;2023-07-31T03:12:52;16.90;99.90
48264;DHT22;34086;51.076;13.722;2023-07-31T03:13:53;16.90;99.90
48264;DHT22;34086;51.076;13.722;2023-07-31T03:14:54;17.00;99.90
48264;DHT22;34086;51.076;13.722;2023-07-31T03:15:54;17.00;99.90
48264;DHT22;34086;51.076;13.722;2023-07-31T03:16:56;17.10;99.90
48264;DHT22;34086;51.076;13.722;2023-07-31T03:17:57;17.00;99.90
48264;DHT22;34086;51.076;13.722;2023-07-31T03:18:57;17.10;99.90
48264;DHT22;34086;51.076;13.722;2023-07-31T03:19:58;17.10;99.90
48264;DHT22;34086;51.076;13.722;2023-07-31T03:20:58;17.10;99.90
48264;DHT22;34086;51.076;13.722;2023-07-31T03:21:59;17.10;99.90
48264;DHT22;34086;51.076;13.722;2023-07-31T03:22:59;17.10;99.90
48264;DHT22;34086;51.076;13.722;2023-07-31T03:24:00;17.10;99.90
48264;DHT22;34086;51.076;13.722;2023-07-31T03:25:03;17.10;99.90
48264;DHT22;34086;51.076;13.722;2023-07-31T03:26:06;17.10;99.90
48264;DHT22;34086;51.076;13.722;2023-07-31T03:27:07;17.10;99.90
48264;DHT22;34086;51.076;13.722;2023-07-31T03:28:08;17.10;99.90
48264;DHT22;34086;51.076;13.722;2023-07-31T03:29:08;17.10;99.90
48264;DHT22;34086;51.076;13.722;2023-07-31T03:30:09;17.10;99.90
48264;DHT22;34086;51.076;13.722;2023-07-31T03:31:10;17.10;99.90
48264;DHT22;34086;51.076;13.722;2023-07-31T03:32:11;17.10;99.90
48264;DHT22;34086;51.076;13.722;2023-07-31T03:33:12;17.10;99.90
48264;DHT22;34086;51.076;13.722;2023-07-31T03:34:12;17.10;99.90
48264;DHT22;34086;51.076;13.722;2023-07-31T03:35:13;17.10;99.90
48264;DHT22;34086;51.076;13.722;2023-07-31T03:36:13;17.10;99.90
48264;DHT22;34086;51.076;13.722;2023-07-31T03:37:14;17.10;99.90
48264;DHT22;34086;51.076;13.722;2023-07-31T03:38:14;17.10;99.90
48264;DHT22;34086;51.076;13.722;2023-07-31T03:39:15;17.00;99.90
48264;DHT22;34086;51.076;13.722;2023-07-31T03:40:15;17.00;99.90
48264;DHT22;34086;51.076;13.722;2023-07-31T03:41:17;17.00;99.90
48264;DHT22;34086;51.076;13.722;2023-07-31T03:42:19;17.00;99.90
48264;DHT22;34086;51.076;13.722;2023-07-31T03:43:19;16.90;99.90
48264;DHT22;34086;51.076;13.722;2023-07-31T03:44:20;16.90;99.90
48264;DHT22;34086;51.076;13.722;2023-07-31T03:45:21;16.90;99.90
48264;DHT22;34086;51.076;13.722;2023-07-31T03:46:22;16.80;99.90
48264;DHT22;34086;51.076;13.722;2023-07-31T03:47:23;16.80;99.90
48264;DHT22;34086;51.076;13.722;2023-07-31T03:48:24;16.70;99.90
48264;DHT22;34086;51.076;13.722;2023-07-31T03:49:24;16.70;99.90
48264;DHT22;34086;51.076;13.722;2023-07-31T03:50:25;16.70;99.90
48264;DHT22;34086;51.076;13.722;2023-07-31T03:51:25;16.70;99.90
48264;DHT22;34086;51.076;13.722;2023-07-31T03:52:26;16.60;99.90
48264;DHT22;34086;51.076;13.722;2023-07-31T03:53:26;16.60;99.90
48264;DHT22;34086;51.076;13.722;2023-07-31T03:54:27;16.60;99.90
48264;DHT22;34086;51.076;13.722;2023-07-31T03:55:27;16.50;99.90
48264;DHT22;34086;51.076;13.722;2023-07-31T03:56:28;16.50;99.90
48264;DHT22;34086;51.076;13.722;2023-07-31T03:57:28;16.50;99.90
48264;DHT22;34086;51.076;13.722;2023-07-31T03:58:29;16.60;99.90
48264;DHT22;34086;51.076;13.722;2023-07-31T03:59:29;16.50;99.90
48264;DHT22;34086;51.076;13.722;2023-07-31T04:00:30;16.50;99.90
48264;DHT22;34086;51.076;13.722;2023-07-31T04:01:30;16.50;99.90
48264;DHT22;34086;51.076;13.722;2023-07-31T04:02:31;16.50;99.90
48264;DHT22;34086;51.076;13.722;2023-07-31T04:03:31;16.50;99.90
48264;DHT22;34086;51.076;13.722;2023-07-31T04:04:32;16.50;99.90
48264;DHT22;34086;51.076;13.722;2023-07-31T04:05:32;16.50;99.90
48264;DHT22;34086;51.076;13.722;2023-07-31T04:06:33;16.50;99.90
48264;DHT22;34086;51.076;13.722;2023-07-31T04:07:34;16.50;99.90
48264;DHT22;34086;51.076;13.722;2023-07-31T04:08:34;16.50;99.90
48264;DHT22;34086;51.076;13.722;2023-07-31T04:09:35;16.50;99.90
48264;DHT22;34086;51.076;13.722;2023-07-31T04:10:35;16.50;99.90
48264;DHT22;34086;51.076;13.722;2023-07-31T04:11:36;16.50;99.90
48264;DHT22;34086;51.076;13.722;2023-07-31T04:12:36;16.50;99.90
48264;DHT22;34086;51.076;13.722;2023-07-31T04:13:37;16.50;99.90
48264;DHT22;34086;51.076;13.722;2023-07-31T04:14:37;16.50;99.90
48264;DHT22;34086;51.076;13.722;2023-07-31T04:15:38;16.50;99.90
48264;DHT22;34086;51.076;13.722;2023-07-31T04:16:38;16.50;99.90
48264;DHT22;34086;51.076;13.722;2023-07-31T04:17:39;16.50;99.90
48264;DHT22;34086;51.076;13.722;2023-07-31T04:18:39;16.40;99.90
48264;DHT22;34086;51.076;13.722;2023-07-31T04:19:40;16.50;99.90
48264;DHT22;34086;51.076;13.722;2023-07-31T04:20:40;16.50;99.90
48264;DHT22;34086;51.076;13.722;2023-07-31T04:21:41;16.50;99.90
48264;DHT22;34086;51.076;13.722;2023-07-31T04:22:41;16.40;99.90
48264;DHT22;34086;51.076;13.722;2023-07-31T04:23:41;16.40;99.90
48264;DHT22;34086;51.076;13.722;2023-07-31T04:24:42;16.40;99.90
48264;DHT22;34086;51.076;13.722;2023-07-31T04:25:43;16.40;99.90
48264;DHT22;34086;51.076;13.722;2023-07-31T04:26:43;16.30;99.90
48264;DHT22;34086;51.076;13.722;2023-07-31T04:27:43;16.40;99.90
48264;DHT22;34086;51.076;13.722;2023-07-31T04:28:44;16.40;99.90
48264;DHT22;34086;51.076;13.722;2023-07-31T04:29:44;16.30;99.90
48264;DHT22;34086;51.076;13.722;2023-07-31T04:30:47;16.30;99.90
48264;DHT22;34086;51.076;13.722;2023-07-31T04:31:48;16.30;99.90
48264;DHT22;34086;51.076;13.722;2023-07-31T04:32:48;16.30;99.90
48264;DHT22;34086;51.076;13.722;2023-07-31T04:33:49;16.20;99.90
48264;DHT22;34086;51.076;13.722;2023-07-31T04:34:49;16.30;99.90
48264;DHT22;34086;51.076;13.722;2023-07-31T04:35:51;16.30;99.90
48264;DHT22;34086;51.076;13.722;2023-07-31T04:36:52;16.20;99.90
48264;DHT22;34086;51.076;13.722;2023-07-31T04:37:53;16.20;99.90
48264;DHT22;34086;51.076;13.722;2023-07-31T04:38:53;16.20;99.90
48264;DHT22;34086;51.076;13.722;2023-07-31T04:39:54;16.20;99.90
48264;DHT22;34086;51.076;13.722;2023-07-31T04:40:54;16.10;99.90
48264;DHT22;34086;51.076;13.722;2023-07-31T04:41:55;16.10;99.90
48264;DHT22;34086;51.076;13.722;2023-07-31T04:42:55;16.20;99.90
48264;DHT22;34086;51.076;13.722;2023-07-31T04:43:56;16.20;99.90
48264;DHT22;34086;51.076;13.722;2023-07-31T04:44:56;16.20;99.90
48264;DHT22;34086;51.076;13.722;2023-07-31T04:45:57;16.30;99.90
48264;DHT22;34086;51.076;13.722;2023-07-31T04:46:58;16.20;99.90
48264;DHT22;34086;51.076;13.722;2023-07-31T04:47:58;16.20;99.90
48264;DHT22;34086;51.076;13.722;2023-07-31T04:48:59;16.20;99.90
48264;DHT22;34086;51.076;13.722;2023-07-31T04:49:59;16.20;99.90
48264;DHT22;34086;51.076;13.722;2023-07-31T04:51:00;16.20;99.90
48264;DHT22;34086;51.076;13.722;2023-07-31T04:52:00;16.20;99.90
48264;DHT22;34086;51.076;13.722;2023-07-31T04:53:01;16.20;99.90
48264;DHT22;34086;51.076;13.722;2023-07-31T04:54:01;16.20;99.90
48264;DHT22;34086;51.076;13.722;2023-07-31T04:55:02;16.20;99.90
48264;DHT22;34086;51.076;13.722;2023-07-31T04:56:03;16.20;99.90
48264;DHT22;34086;51.076;13.722;2023-07-31T04:57:04;16.20;99.90
48264;DHT22;34086;51.076;13.722;2023-07-31T04:58:04;16.20;99.90
48264;DHT22;34086;51.076;13.722;2023-07-31T04:59:05;16.30;99.90
48264;DHT22;34086;51.076;13.722;2023-07-31T05:00:05;16.30;99.90
48264;DHT22;34086;51.076;13.722;2023-07-31T05:01:06;16.20;99.90
48264;DHT22;34086;51.076;13.722;2023-07-31T05:02:08;16.20;99.90
48264;DHT22;34086;51.076;13.722;2023-07-31T05:03:08;16.20;99.90
48264;DHT22;34086;51.076;13.722;2023-07-31T05:04:12;16.20;99.90
48264;DHT22;34086;51.076;13.722;2023-07-31T05:05:13;16.30;99.90
48264;DHT22;34086;51.076;13.722;2023-07-31T05:06:13;16.30;99.90
48264;DHT22;34086;51.076;13.722;2023-07-31T05:07:15;16.30;99.90
48264;DHT22;34086;51.076;13.722;2023-07-31T05:08:17;16.30;99.90
48264;DHT22;34086;51.076;13.722;2023-07-31T05:09:17;16.30;99.90
48264;DHT22;34086;51.076;13.722;2023-07-31T05:10:18;16.30;99.90
48264;DHT22;34086;51.076;13.722;2023-07-31T05:11:19;16.30;99.90
48264;DHT22;34086;51.076;13.722;2023-07-31T05:12:19;16.40;99.90
48264;DHT22;34086;51.076;13.722;2023-07-31T05:13:20;16.40;99.90
48264;DHT22;34086;51.076;13.722;2023-07-31T05:14:20;16.40;99.90
48264;DHT22;34086;51.076;13.722;2023-07-31T05:15:21;16.40;99.90
48264;DHT22;34086;51.076;13.722;2023-07-31T05:16:21;16.40;99.90
48264;DHT22;34086;51.076;13.722;2023-07-31T05:17:22;16.40;99.90
48264;DHT22;34086;51.076;13.722;2023-07-31T05:18:22;16.40;99.90
48264;DHT22;34086;51.076;13.722;2023-07-31T05:19:23;16.40;99.90
48264;DHT22;34086;51.076;13.722;2023-07-31T05:20:23;16.40;99.90
48264;DHT22;34086;51.076;13.722;2023-07-31T05:21:24;16.50;99.90
48264;DHT22;34086;51.076;13.722;2023-07-31T05:22:24;16.50;99.90
48264;DHT22;34086;51.076;13.722;2023-07-31T05:23:25;16.50;99.90
48264;DHT22;34086;51.076;13.722;2023-07-31T05:24:25;16.50;99.90
48264;DHT22;34086;51.076;13.722;2023-07-31T05:25:26;16.50;99.90
48264;DHT22;34086;51.076;13.722;2023-07-31T05:26:26;16.50;99.90
48264;DHT22;34086;51.076;13.722;2023-07-31T05:27:27;16.50;99.90
48264;DHT22;34086;51.076;13.722;2023-07-31T05:28:27;16.50;99.90
48264;DHT22;34086;51.076;13.722;2023-07-31T05:29:28;16.50;99.90
48264;DHT22;34086;51.076;13.722;2023-07-31T05:30:31;16.50;99.90
48264;DHT22;34086;51.076;13.722;2023-07-31T05:31:32;16.50;99.90
48264;DHT22;34086;51.076;13.722;2023-07-31T05:32:32;16.50;99.90
48264;DHT22;34086;51.076;13.722;2023-07-31T05:33:33;16.50;99.90
48264;DHT22;34086;51.076;13.722;2023-07-31T05:34:33;16.50;99.90
48264;DHT22;34086;51.076;13.722;2023-07-31T05:35:34;16.60;99.90
48264;DHT22;34086;51.076;13.722;2023-07-31T05:36:34;16.60;99.90
48264;DHT22;34086;51.076;13.722;2023-07-31T05:37:35;16.60;99.90
48264;DHT22;34086;51.076;13.722;2023-07-31T05:38:36;16.60;99.90
48264;DHT22;34086;51.076;13.722;2023-07-31T05:39:36;16.60;99.90
48264;DHT22;34086;51.076;13.722;2023-07-31T05:40:37;16.60;99.90
48264;DHT22;34086;51.076;13.722;2023-07-31T05:41:37;16.60;99.90
48264;DHT22;34086;51.076;13.722;2023-07-31T05:42:38;16.60;99.90
48264;DHT22;34086;51.076;13.722;2023-07-31T05:43:38;16.60;99.90
48264;DHT22;34086;51.076;13.722;2023-07-31T05:44:39;16.60;99.90
48264;DHT22;34086;51.076;13.722;2023-07-31T05:45:41;16.70;99.90
48264;DHT22;34086;51.076;13.722;2023-07-31T05:46:42;16.60;99.90
48264;DHT22;34086;51.076;13.722;2023-07-31T05:47:42;16.60;99.90
48264;DHT22;34086;51.076;13.722;2023-07-31T05:48:43;16.60;99.90
48264;DHT22;34086;51.076;13.722;2023-07-31T05:49:43;16.70;99.90
48264;DHT22;34086;51.076;13.722;2023-07-31T05:50:44;16.70;99.90
48264;DHT22;34086;51.076;13.722;2023-07-31T05:51:44;16.70;99.90
48264;DHT22;34086;51.076;13.722;2023-07-31T05:52:45;16.70;99.90
48264;DHT22;34086;51.076;13.722;2023-07-31T05:53:46;16.70;99.90
48264;DHT22;34086;51.076;13.722;2023-07-31T05:54:46;16.80;99.90
48264;DHT22;34086;51.076;13.722;2023-07-31T05:55:47;16.80;99.90
48264;DHT22;34086;51.076;13.722;2023-07-31T05:56:47;16.80;99.90
48264;DHT22;34086;51.076;13.722;2023-07-31T05:57:48;16.80;99.90
48264;DHT22;34086;51.076;13.722;2023-07-31T05:58:48;16.80;99.90
48264;DHT22;34086;51.076;13.722;2023-07-31T05:59:50;16.80;99.90
48264;DHT22;34086;51.076;13.722;2023-07-31T06:00:50;16.70;99.90
48264;DHT22;34086;51.076;13.722;2023-07-31T06:01:52;16.80;99.90
48264;DHT22;34086;51.076;13.722;2023-07-31T06:02:53;16.70;99.90
48264;DHT22;34086;51.076;13.722;2023-07-31T06:03:53;16.70;99.90
48264;DHT22;34086;51.076;13.722;2023-07-31T06:04:54;16.80;99.90
48264;DHT22;34086;51.076;13.722;2023-07-31T06:05:54;16.80;99.90
48264;DHT22;34086;51.076;13.722;2023-07-31T06:06:55;16.70;99.90
48264;DHT22;34086;51.076;13.722;2023-07-31T06:07:56;16.70;99.90
48264;DHT22;34086;51.076;13.722;2023-07-31T06:08:56;16.80;99.90
48264;DHT22;34086;51.076;13.722;2023-07-31T06:09:57;16.80;99.90
48264;DHT22;34086;51.076;13.722;2023-07-31T06:11:03;16.80;99.90
48264;DHT22;34086;51.076;13.722;2023-07-31T06:12:04;16.80;99.90
48264;DHT22;34086;51.076;13.722;2023-07-31T06:13:04;16.80;99.90
48264;DHT22;34086;51.076;13.722;2023-07-31T06:14:05;16.80;99.90
48264;DHT22;34086;51.076;13.722;2023-07-31T06:15:05;16.80;99.90
48264;DHT22;34086;51.076;13.722;2023-07-31T06:16:06;16.80;99.90
48264;DHT22;34086;51.076;13.722;2023-07-31T06:17:07;16.80;99.90
48264;DHT22;34086;51.076;13.722;2023-07-31T06:18:07;16.80;99.90
48264;DHT22;34086;51.076;13.722;2023-07-31T06:19:08;16.80;99.90
48264;DHT22;34086;51.076;13.722;2023-07-31T06:20:08;16.80;99.90
48264;DHT22;34086;51.076;13.722;2023-07-31T06:21:10;16.80;99.90
48264;DHT22;34086;51.076;13.722;2023-07-31T06:22:11;16.80;99.90